createdAt,value
2023-06-24T15:33:40.066Z,99654.59
2023-06-24T15:36:12.959Z,99655.00
2023-06-24T15:38:48.061Z,99651.00
2023-06-24T15:41:21.071Z,99645.25
2023-06-24T15:43:54.077Z,99640.38
2023-06-24T15:46:27.428Z,99637.34
2023-06-24T15:49:01.762Z,99646.53
2023-06-24T15:51:34.592Z,99641.56
2023-06-24T15:54:07.746Z,99645.03
2023-06-24T15:56:40.587Z,99634.09
2023-06-24T15:59:13.593Z,99633.66
2023-06-24T16:01:46.543Z,99634.41
2023-06-24T16:04:20.865Z,99640.09
2023-06-24T16:06:53.744Z,99630.53
2023-06-24T16:09:26.599Z,99636.13
2023-06-24T16:11:59.455Z,99633.91
2023-06-24T16:14:32.285Z,99635.69
2023-06-24T16:17:05.674Z,99630.38
2023-06-24T16:19:40.081Z,99622.75
2023-06-24T16:22:12.993Z,99631.50
2023-06-24T16:24:46.014Z,99623.13
2023-06-24T16:27:18.865Z,99618.69
2023-06-24T16:29:51.690Z,99616.72
2023-06-24T16:32:24.856Z,99623.50
2023-06-24T16:34:59.190Z,99621.44
2023-06-24T16:37:31.982Z,99618.81
2023-06-24T16:40:05.136Z,99617.31
2023-06-24T16:42:37.988Z,99611.28
2023-06-24T16:45:11.397Z,99613.19
2023-06-24T16:47:44.341Z,99609.25
2023-06-24T16:50:18.577Z,99611.53
2023-06-24T16:52:51.390Z,99609.75
2023-06-24T16:55:24.385Z,99609.00
2023-06-24T16:57:57.225Z,99610.31
2023-06-24T17:00:30.111Z,99599.22
2023-06-24T17:03:03.232Z,99606.84
2023-06-24T17:05:40.866Z,99604.22
2023-06-24T17:08:14.020Z,99598.59
2023-06-24T17:10:46.993Z,99602.00
2023-06-24T17:13:20.648Z,99604.28
2023-06-24T17:15:53.552Z,99598.44
2023-06-24T17:18:26.399Z,99592.91
2023-06-24T17:42:28.179Z,99588.66
2023-06-24T17:45:01.011Z,99583.91
2023-06-24T17:47:33.875Z,99590.00
2023-06-24T17:50:07.303Z,99587.53
2023-06-24T17:52:40.231Z,99595.59
2023-06-24T17:55:13.096Z,99591.94
2023-06-24T17:57:47.347Z,99595.44
2023-06-24T18:00:20.374Z,99589.25
2023-06-24T18:02:53.276Z,99584.44
2023-06-24T18:05:26.335Z,99590.41
2023-06-24T18:07:59.993Z,99595.53
2023-06-24T18:10:33.854Z,99598.63
2023-06-24T18:13:08.186Z,99588.75
2023-06-24T18:15:41.019Z,99594.66
2023-06-24T18:18:13.829Z,99594.19
2023-06-24T18:20:46.662Z,99588.97
2023-06-24T18:23:19.443Z,99593.91
2023-06-24T18:25:52.308Z,99582.75
2023-06-24T18:28:26.469Z,99585.97
2023-06-24T18:30:59.349Z,99585.06
2023-06-24T18:33:32.283Z,99584.81
2023-06-24T18:36:05.087Z,99582.81
2023-06-24T18:38:38.196Z,99593.63
2023-06-24T18:41:11.494Z,99589.97
2023-06-24T18:43:45.711Z,99587.69
2023-06-24T18:46:19.843Z,99592.09
2023-06-24T18:48:53.094Z,99592.88
2023-06-24T18:51:25.892Z,99588.75
2023-06-24T18:53:58.805Z,99595.19
2023-06-24T18:56:31.591Z,99594.94
2023-06-24T18:59:05.796Z,99597.50
2023-06-24T19:01:38.644Z,99593.63
2023-06-24T19:04:11.483Z,99600.63
2023-06-24T19:06:44.948Z,99592.28
2023-06-24T19:09:17.813Z,99595.94
2023-06-24T19:11:50.658Z,99594.63
2023-06-24T19:14:24.823Z,99593.06
2023-06-24T19:16:57.964Z,99591.19
2023-06-24T19:19:30.894Z,99595.59
2023-06-24T19:22:04.908Z,99589.56
2023-06-24T19:24:39.524Z,99588.50
2023-06-24T19:27:12.369Z,99592.09
2023-06-24T19:29:46.708Z,99583.19
2023-06-24T19:32:19.693Z,99580.44
2023-06-24T19:34:52.733Z,99580.91
2023-06-24T19:37:25.555Z,99587.75
2023-06-24T19:39:59.169Z,99589.03
2023-06-24T19:42:32.141Z,99592.72
2023-06-24T19:45:08.218Z,99599.38
2023-06-24T19:47:41.323Z,99597.69
2023-06-24T19:50:14.388Z,99592.69
2023-06-24T19:52:47.718Z,99593.97
2023-06-24T19:55:20.843Z,99599.66
2023-06-24T19:57:53.844Z,99601.44
2023-06-24T20:00:28.119Z,99599.88
2023-06-24T20:03:03.685Z,99597.75
2023-06-24T20:05:36.618Z,99602.97
2023-06-24T20:08:09.527Z,99601.22
2023-06-24T20:10:42.435Z,99595.41
2023-06-24T20:13:15.368Z,99590.53
2023-06-24T20:15:49.740Z,99598.59
2023-06-24T20:18:24.657Z,99597.16
2023-06-24T20:20:57.554Z,99604.84
2023-06-24T20:23:30.408Z,99600.56
2023-06-24T20:26:03.249Z,99596.53
2023-06-24T20:28:36.055Z,99591.44
2023-06-24T20:31:10.665Z,99595.25
2023-06-24T20:33:43.693Z,99597.78
2023-06-24T20:36:17.404Z,99594.56
2023-06-24T20:38:50.212Z,99606.69
2023-06-24T20:41:24.542Z,99592.59
2023-06-24T20:43:57.462Z,99591.97
2023-06-24T20:46:31.866Z,99589.13
2023-06-24T20:49:05.108Z,99594.38
2023-06-24T20:51:40.434Z,99595.53
2023-06-24T20:54:13.594Z,99586.94
2023-06-24T20:56:46.571Z,99588.66
2023-06-24T20:59:19.567Z,99593.25
2023-06-24T21:01:54.168Z,99589.06
2023-06-24T21:04:27.085Z,99590.53
2023-06-24T21:07:00.075Z,99588.53
2023-06-24T21:09:33.041Z,99594.53
2023-06-24T21:12:06.906Z,99592.16
2023-06-24T21:14:39.842Z,99585.59
2023-06-24T21:17:14.124Z,99585.59
2023-06-24T21:19:46.978Z,99588.91
2023-06-24T21:22:19.951Z,99584.78
2023-06-24T21:24:52.854Z,99583.38
2023-06-24T21:27:25.674Z,99575.72
2023-06-24T21:29:58.635Z,99584.91
2023-06-24T21:32:33.494Z,99582.56
2023-06-24T21:35:07.569Z,99585.72
2023-06-24T21:37:40.549Z,99581.16
2023-06-24T21:40:14.780Z,99593.25
2023-06-24T21:42:49.686Z,99591.66
2023-06-24T21:45:22.855Z,99585.69
2023-06-24T21:47:57.093Z,99592.94
2023-06-24T21:50:30.013Z,99595.94
2023-06-24T21:53:03.010Z,99597.81
2023-06-24T21:55:35.950Z,99592.47
2023-06-24T21:58:08.778Z,99585.88
2023-06-24T22:00:43.546Z,99596.41
2023-06-24T22:03:18.258Z,99590.13
2023-06-24T22:05:53.372Z,99589.50
2023-06-24T22:08:26.443Z,99593.56
2023-06-24T22:10:59.325Z,99595.75
2023-06-24T22:13:32.285Z,99594.50
2023-06-24T22:16:05.432Z,99594.13
2023-06-24T22:18:39.723Z,99595.75
2023-06-24T22:21:12.545Z,99593.13
2023-06-24T22:23:45.390Z,99591.78
2023-06-24T22:26:18.298Z,99597.13
2023-06-24T22:28:51.325Z,99599.78
2023-06-24T22:31:24.184Z,99596.34
2023-06-24T22:33:58.381Z,99590.16
2023-06-24T22:36:31.236Z,99590.47
2023-06-24T22:39:04.240Z,99589.88
2023-06-24T22:41:37.098Z,99589.81
2023-06-24T22:44:11.480Z,99587.66
2023-06-24T22:46:44.763Z,99588.59
2023-06-24T22:49:19.798Z,99580.19
2023-06-24T22:51:56.018Z,99584.34
2023-06-24T22:54:29.732Z,99580.66
2023-06-24T22:57:19.465Z,99591.34
2023-06-24T22:59:53.631Z,99579.28
2023-06-24T23:02:28.385Z,99568.34
2023-06-24T23:05:03.593Z,99573.94
2023-06-24T23:07:37.228Z,99575.75
2023-06-24T23:10:10.990Z,99571.81
2023-06-24T23:12:47.915Z,99575.06
2023-06-24T23:15:21.058Z,99572.81
2023-06-24T23:17:56.482Z,99569.91
2023-06-24T23:20:31.540Z,99571.09
2023-06-24T23:23:04.911Z,99565.97
2023-06-24T23:25:40.836Z,99570.22
2023-06-24T23:28:27.243Z,99584.53
2023-06-24T23:31:05.812Z,99580.00
2023-06-24T23:33:39.100Z,99580.28
2023-06-24T23:36:14.998Z,99590.94
2023-06-24T23:38:51.068Z,99572.25
2023-06-24T23:41:29.391Z,99569.69
2023-06-24T23:44:07.204Z,99577.88
2023-06-24T23:46:47.211Z,99569.69
2023-06-24T23:49:29.994Z,99576.94
2023-06-24T23:52:06.150Z,99571.88
2023-06-24T23:54:39.016Z,99574.06
2023-06-24T23:57:11.868Z,99570.91
2023-06-24T23:59:44.806Z,99564.44
